createdAt,value
2023-04-14T00:03:11.957Z,7.65
2023-04-14T00:08:32.201Z,7.66
2023-04-14T00:13:52.935Z,7.71
2023-04-14T00:19:13.499Z,7.71
2023-04-14T00:24:40.625Z,7.72
2023-04-14T00:30:01.255Z,7.76
2023-04-14T00:35:21.815Z,7.75
2023-04-14T00:40:42.369Z,7.63
2023-04-14T00:46:03.216Z,7.52
2023-04-14T00:51:24.815Z,7.41
2023-04-14T00:56:50.437Z,7.34
2023-04-14T01:02:12.332Z,7.37
2023-04-14T01:07:33.381Z,7.33
2023-04-14T01:13:20.352Z,7.28
2023-04-14T01:18:48.601Z,7.24
2023-04-14T01:24:48.911Z,7.19
2023-04-14T01:30:22.171Z,7.16
2023-04-14T01:35:57.752Z,7.08
2023-04-14T01:41:21.582Z,7.29
2023-04-14T01:46:44.947Z,7.06
2023-04-14T01:52:13.438Z,6.96
2023-04-14T01:57:37.555Z,6.97
2023-04-14T02:02:58.909Z,6.96
2023-04-14T02:08:24.639Z,6.95
2023-04-14T02:13:48.294Z,6.94
2023-04-14T02:19:09.508Z,6.91
2023-04-14T02:24:30.932Z,6.92
2023-04-14T02:29:56.232Z,6.93
2023-04-14T02:35:21.995Z,6.89
2023-04-14T02:40:44.871Z,6.49
2023-04-14T02:46:09.174Z,6.55
2023-04-14T02:51:32.104Z,6.58
2023-04-14T02:56:53.538Z,6.68
2023-04-14T03:02:20.287Z,6.56
2023-04-14T03:07:51.337Z,6.47
2023-04-14T03:13:15.372Z,6.58
2023-04-14T03:18:36.987Z,6.74
2023-04-14T03:23:58.742Z,6.72
2023-04-14T03:29:23.062Z,6.73
2023-04-14T03:34:49.942Z,6.64
2023-04-14T03:40:11.719Z,6.62
2023-04-14T03:45:34.741Z,6.20
2023-04-14T03:50:57.727Z,6.12
2023-04-14T03:56:19.764Z,6.09
2023-04-14T04:01:42.865Z,6.05
2023-04-14T04:07:05.272Z,6.03
2023-04-14T04:12:27.990Z,6.07
2023-04-14T04:17:51.168Z,6.20
2023-04-14T04:23:16.965Z,6.03
2023-04-14T04:28:38.835Z,6.10
2023-04-14T04:34:00.745Z,6.36
2023-04-14T04:39:21.613Z,6.37
2023-04-14T04:44:42.923Z,6.53
2023-04-14T04:50:03.335Z,6.61
2023-04-14T04:55:24.120Z,6.63
2023-04-14T05:00:44.985Z,6.62
2023-04-14T05:06:05.667Z,6.65
2023-04-14T05:11:27.058Z,6.65
2023-04-14T05:16:47.852Z,6.67
2023-04-14T05:22:08.332Z,6.76
2023-04-14T05:27:28.796Z,6.84
2023-04-14T05:32:49.667Z,6.87
2023-04-14T05:38:11.000Z,6.99
2023-04-14T05:43:31.404Z,7.02
2023-04-14T05:48:52.407Z,7.12
2023-04-14T05:54:13.173Z,7.22
2023-04-14T05:59:33.826Z,7.31
2023-04-14T06:04:54.618Z,7.38
2023-04-14T06:10:15.922Z,7.51
2023-04-14T06:15:37.254Z,7.62
2023-04-14T06:20:57.973Z,7.74
2023-04-14T06:26:18.852Z,7.85
2023-04-14T06:31:39.541Z,7.92
2023-04-14T06:37:01.479Z,8.09
2023-04-14T06:42:22.018Z,8.26
2023-04-14T06:47:42.460Z,8.39
2023-04-14T06:53:03.054Z,8.56
2023-04-14T06:58:23.480Z,8.57
2023-04-14T07:03:44.472Z,8.64
2023-04-14T07:09:05.906Z,8.76
2023-04-14T07:14:27.080Z,9.02
2023-04-14T07:19:47.520Z,9.12
2023-04-14T07:25:08.289Z,9.28
2023-04-14T07:30:28.576Z,9.41
2023-04-14T07:36:01.439Z,9.43
2023-04-14T07:41:24.406Z,9.65
2023-04-14T07:46:45.181Z,9.87
2023-04-14T07:52:06.068Z,10.16
2023-04-14T07:57:26.699Z,10.50
2023-04-14T08:02:47.691Z,10.52
2023-04-14T08:08:10.054Z,10.61
2023-04-14T08:13:30.698Z,10.92
2023-04-14T08:18:51.208Z,11.15
2023-04-14T08:24:11.686Z,10.98
2023-04-14T08:29:32.210Z,11.01
2023-04-14T08:35:36.881Z,11.07
2023-04-14T08:40:38.336Z,11.31
2023-04-14T08:46:00.395Z,11.57
2023-04-14T08:51:42.844Z,11.85
2023-04-14T08:57:04.631Z,12.27
2023-04-14T09:02:27.291Z,12.94
2023-04-14T09:07:48.107Z,13.54
2023-04-14T09:13:12.666Z,13.95
2023-04-14T09:18:34.847Z,13.41
2023-04-14T09:23:57.192Z,13.03
2023-04-14T09:29:51.489Z,13.26
2023-04-14T09:35:16.207Z,13.02
2023-04-14T09:40:41.522Z,13.41
2023-04-14T09:46:07.570Z,13.43
2023-04-14T09:51:28.809Z,13.55
2023-04-14T09:56:49.203Z,13.83
2023-04-14T10:02:10.184Z,14.15
2023-04-14T10:07:31.306Z,14.44
2023-04-14T10:12:52.964Z,14.58
2023-04-14T10:18:14.819Z,14.98
2023-04-14T10:23:39.662Z,15.32
2023-04-14T10:29:02.841Z,15.27
2023-04-14T10:34:25.822Z,15.41
2023-04-14T10:39:55.715Z,16.21
2023-04-14T10:45:16.877Z,16.66
2023-04-14T10:50:47.768Z,19.96
2023-04-14T10:56:08.108Z,28.89
2023-04-14T11:01:31.755Z,35.84
2023-04-14T11:06:54.959Z,36.78
2023-04-14T11:12:28.090Z,39.17
2023-04-14T11:17:49.047Z,42.36
2023-04-14T11:23:12.931Z,41.41
2023-04-14T11:28:38.786Z,37.48
2023-04-14T11:33:59.310Z,31.62
2023-04-14T11:39:20.618Z,36.36
2023-04-14T11:44:41.631Z,40.86
2023-04-14T11:50:04.860Z,33.59
2023-04-14T11:55:29.742Z,29.01
2023-04-14T12:00:53.052Z,27.15
2023-04-14T12:06:15.617Z,25.76
2023-04-14T12:11:36.196Z,25.19
2023-04-14T12:16:57.269Z,24.83
2023-04-14T12:22:44.101Z,24.25
2023-04-14T12:28:08.502Z,23.65
2023-04-14T12:33:30.810Z,23.88
2023-04-14T12:38:51.558Z,24.06
2023-04-14T12:44:24.405Z,24.29
2023-04-14T12:49:44.976Z,24.37
2023-04-14T12:55:07.212Z,24.37
2023-04-14T13:00:28.222Z,25.31
2023-04-14T13:05:48.447Z,26.92
2023-04-14T13:11:09.257Z,32.97
2023-04-14T13:16:29.747Z,39.25
2023-04-14T13:21:50.462Z,42.87
2023-04-14T13:27:11.575Z,44.33
2023-04-14T13:32:32.740Z,42.18
2023-04-14T13:37:53.376Z,42.56
2023-04-14T13:43:16.618Z,37.61
2023-04-14T13:48:38.955Z,38.07
2023-04-14T13:54:00.788Z,37.09
2023-04-14T13:59:22.860Z,35.63
2023-04-14T14:04:43.280Z,37.13
2023-04-14T14:10:14.361Z,41.10
2023-04-14T14:15:35.471Z,39.68
2023-04-14T14:20:57.515Z,37.79
2023-04-14T14:26:21.387Z,36.15
2023-04-14T14:31:42.705Z,36.28
2023-04-14T14:37:04.297Z,36.59
2023-04-14T14:42:32.884Z,37.48
2023-04-14T14:47:57.069Z,35.84
2023-04-14T14:53:17.645Z,30.88
2023-04-14T14:58:38.208Z,32.21
2023-04-14T15:03:58.820Z,32.26
2023-04-14T15:09:19.846Z,32.19
2023-04-14T15:14:40.146Z,30.50
2023-04-14T15:20:05.498Z,29.53
2023-04-14T15:25:26.278Z,29.06
2023-04-14T15:30:46.772Z,29.56
2023-04-14T15:36:07.673Z,29.16
2023-04-14T15:41:28.063Z,28.31
2023-04-14T15:46:48.497Z,27.21
2023-04-14T15:52:09.134Z,26.89
2023-04-14T15:57:31.899Z,27.05
2023-04-14T16:02:52.864Z,26.74
2023-04-14T16:08:14.125Z,25.88
2023-04-14T16:13:35.025Z,24.75
2023-04-14T16:18:55.561Z,23.49
2023-04-14T16:24:16.182Z,22.89
2023-04-14T16:29:36.779Z,22.26
2023-04-14T16:34:57.366Z,22.13
2023-04-14T16:40:18.048Z,22.07
2023-04-14T16:45:39.382Z,22.02
2023-04-14T16:51:04.504Z,21.47
2023-04-14T16:56:25.072Z,21.32
2023-04-14T17:01:45.813Z,20.39
2023-04-14T17:07:06.897Z,19.89
2023-04-14T17:12:27.581Z,19.52
2023-04-14T17:17:48.007Z,19.17
2023-04-14T17:23:09.362Z,18.97
2023-04-14T17:28:29.967Z,18.92
2023-04-14T17:33:51.118Z,18.68
2023-04-14T17:39:11.782Z,18.37
2023-04-14T17:44:34.208Z,17.75
2023-04-14T17:49:54.978Z,17.78
2023-04-14T17:55:16.366Z,17.00
2023-04-14T18:00:42.401Z,16.70
2023-04-14T18:06:06.845Z,16.52
2023-04-14T18:11:27.634Z,16.33
2023-04-14T18:16:48.628Z,16.09
2023-04-14T18:22:10.426Z,15.88
2023-04-14T18:32:54.515Z,15.48
2023-04-14T18:38:18.268Z,15.30
2023-04-14T18:43:39.416Z,15.09
2023-04-14T18:49:00.244Z,14.85
2023-04-14T18:54:21.862Z,14.62
2023-04-14T18:59:44.478Z,14.42
2023-04-14T19:05:31.122Z,14.18
2023-04-14T19:10:55.334Z,13.86
2023-04-14T19:16:23.602Z,13.52
2023-04-14T19:21:46.753Z,13.28
2023-04-14T19:27:15.301Z,13.05
2023-04-14T19:32:41.096Z,12.85
2023-04-14T19:38:05.753Z,12.67
2023-04-14T19:43:30.344Z,12.59
2023-04-14T19:48:51.697Z,12.44
2023-04-14T19:54:12.137Z,12.30
2023-04-14T19:59:44.113Z,12.15
2023-04-14T20:05:10.541Z,12.07
2023-04-14T20:10:43.599Z,11.98
2023-04-14T20:16:05.746Z,11.87
2023-04-14T20:21:27.125Z,11.78
2023-04-14T20:27:29.139Z,11.65
2023-04-14T20:52:28.027Z,11.41
2023-04-14T20:57:48.593Z,11.27
2023-04-14T21:03:09.817Z,11.16
2023-04-14T21:08:30.628Z,11.07
2023-04-14T21:15:30.619Z,10.93
2023-04-14T21:19:32.707Z,10.87
2023-04-14T21:24:53.275Z,10.78
2023-04-14T21:30:13.609Z,10.70
2023-04-14T21:35:34.853Z,10.61
2023-04-14T21:40:55.883Z,10.50
2023-04-14T21:46:16.631Z,10.39
2023-04-14T21:51:37.371Z,10.31
2023-04-14T21:56:58.640Z,10.24
2023-04-14T22:02:20.507Z,10.16
2023-04-14T22:07:41.322Z,10.15
2023-04-14T22:13:02.957Z,10.10
2023-04-14T22:18:24.036Z,10.05
2023-04-14T22:23:45.251Z,10.01
2023-04-14T22:29:05.593Z,9.98
2023-04-14T22:34:26.573Z,9.93
2023-04-14T22:39:46.975Z,9.83
2023-04-14T22:45:08.087Z,9.80
2023-04-14T22:50:30.753Z,9.69
2023-04-14T22:55:51.170Z,9.66
2023-04-14T23:01:21.272Z,9.73
2023-04-14T23:06:43.026Z,9.67
2023-04-14T23:12:04.491Z,9.59
2023-04-14T23:17:25.488Z,9.49
2023-04-14T23:22:45.849Z,9.47
2023-04-14T23:28:06.537Z,9.39
2023-04-14T23:33:27.480Z,9.39
2023-04-14T23:38:47.759Z,9.37
2023-04-14T23:44:08.156Z,9.34
2023-04-14T23:49:34.980Z,9.24
2023-04-14T23:54:56.396Z,9.25
